sensor_id;sensor_type;location;lat;lon;timestamp;pressure;altitude;pressure_sealevel;temperature;humidity
59939;BME280;45801;51.810;19.444;2022-11-21T00:00:50;98333.09;;;-0.42;57.85
59939;BME280;45801;51.810;19.444;2022-11-21T00:03:17;98341.71;;;-0.44;57.93
59939;BME280;45801;51.810;19.444;2022-11-21T00:05:45;98339.47;;;-0.44;57.98
59939;BME280;45801;51.810;19.444;2022-11-21T00:08:14;98341.34;;;-0.44;57.87
59939;BME280;45801;51.810;19.444;2022-11-21T00:10:41;98342.48;;;-0.45;57.86
59939;BME280;45801;51.810;19.444;2022-11-21T00:13:13;98337.77;;;-0.46;57.95
59939;BME280;45801;51.810;19.444;2022-11-21T00:15:41;98330.58;;;-0.45;57.95
59939;BME280;45801;51.810;19.444;2022-11-21T00:18:09;98330.70;;;-0.46;58.13
59939;BME280;45801;51.810;19.444;2022-11-21T00:20:40;98333.64;;;-0.48;58.17
59939;BME280;45801;51.810;19.444;2022-11-21T00:23:07;98328.60;;;-0.51;58.12
59939;BME280;45801;51.810;19.444;2022-11-21T00:25:34;98328.31;;;-0.53;58.27
59939;BME280;45801;51.810;19.444;2022-11-21T00:28:01;98327.55;;;-0.54;58.24
59939;BME280;45801;51.810;19.444;2022-11-21T00:30:27;98322.36;;;-0.57;58.30
59939;BME280;45801;51.810;19.444;2022-11-21T00:32:54;98317.66;;;-0.62;58.43
59939;BME280;45801;51.810;19.444;2022-11-21T00:35:21;98314.71;;;-0.65;58.51
59939;BME280;45801;51.810;19.444;2022-11-21T00:37:47;98314.75;;;-0.65;58.53
59939;BME280;45801;51.810;19.444;2022-11-21T00:40:14;98313.95;;;-0.64;58.56
59939;BME280;45801;51.810;19.444;2022-11-21T00:42:41;98314.41;;;-0.65;58.55
59939;BME280;45801;51.810;19.444;2022-11-21T00:45:07;98314.98;;;-0.66;58.29
59939;BME280;45801;51.810;19.444;2022-11-21T00:47:34;98310.61;;;-0.70;58.38
59939;BME280;45801;51.810;19.444;2022-11-21T00:50:01;98306.77;;;-0.68;58.45
59939;BME280;45801;51.810;19.444;2022-11-21T00:52:27;98304.77;;;-0.65;58.50
59939;BME280;45801;51.810;19.444;2022-11-21T00:54:54;98304.46;;;-0.64;58.39
59939;BME280;45801;51.810;19.444;2022-11-21T00:57:20;98306.23;;;-0.66;58.30
59939;BME280;45801;51.810;19.444;2022-11-21T00:59:47;98306.61;;;-0.68;58.45
59939;BME280;45801;51.810;19.444;2022-11-21T01:02:13;98303.75;;;-0.69;58.24
59939;BME280;45801;51.810;19.444;2022-11-21T01:04:40;98298.68;;;-0.70;58.25
59939;BME280;45801;51.810;19.444;2022-11-21T01:07:06;98292.16;;;-0.70;58.50
59939;BME280;45801;51.810;19.444;2022-11-21T01:09:33;98286.40;;;-0.72;58.41
59939;BME280;45801;51.810;19.444;2022-11-21T01:11:59;98285.54;;;-0.72;58.46
59939;BME280;45801;51.810;19.444;2022-11-21T01:14:26;98282.09;;;-0.72;58.59
59939;BME280;45801;51.810;19.444;2022-11-21T01:16:53;98284.13;;;-0.70;58.53
59939;BME280;45801;51.810;19.444;2022-11-21T01:19:19;98289.23;;;-0.70;58.38
59939;BME280;45801;51.810;19.444;2022-11-21T01:21:45;98289.04;;;-0.73;58.05
59939;BME280;45801;51.810;19.444;2022-11-21T01:24:12;98292.16;;;-0.78;58.04
59939;BME280;45801;51.810;19.444;2022-11-21T01:26:38;98295.39;;;-0.80;58.23
59939;BME280;45801;51.810;19.444;2022-11-21T01:29:05;98291.27;;;-0.83;58.72
59939;BME280;45801;51.810;19.444;2022-11-21T01:31:32;98293.13;;;-0.83;58.83
59939;BME280;45801;51.810;19.444;2022-11-21T01:33:59;98288.42;;;-0.84;59.00
59939;BME280;45801;51.810;19.444;2022-11-21T01:36:28;98293.46;;;-0.83;58.98
59939;BME280;45801;51.810;19.444;2022-11-21T01:38:57;98293.45;;;-0.81;58.87
59939;BME280;45801;51.810;19.444;2022-11-21T01:41:30;98290.97;;;-0.82;58.99
59939;BME280;45801;51.810;19.444;2022-11-21T01:44:05;98292.38;;;-0.82;58.96
59939;BME280;45801;51.810;19.444;2022-11-21T01:46:32;98289.69;;;-0.81;58.79
59939;BME280;45801;51.810;19.444;2022-11-21T01:49:06;98281.78;;;-0.79;58.96
59939;BME280;45801;51.810;19.444;2022-11-21T01:51:55;98286.67;;;-0.80;58.89
59939;BME280;45801;51.810;19.444;2022-11-21T01:57:01;98291.67;;;-0.82;58.60
59939;BME280;45801;51.810;19.444;2022-11-21T01:59:40;98293.95;;;-0.84;58.48
59939;BME280;45801;51.810;19.444;2022-11-21T02:02:10;98295.15;;;-0.84;58.33
59939;BME280;45801;51.810;19.444;2022-11-21T02:04:41;98301.10;;;-0.85;58.06
59939;BME280;45801;51.810;19.444;2022-11-21T02:07:10;98298.27;;;-0.86;58.07
59939;BME280;45801;51.810;19.444;2022-11-21T02:09:39;98295.39;;;-0.93;58.27
59939;BME280;45801;51.810;19.444;2022-11-21T02:12:15;98298.89;;;-0.97;58.21
59939;BME280;45801;51.810;19.444;2022-11-21T02:14:43;98302.11;;;-0.99;58.26
59939;BME280;45801;51.810;19.444;2022-11-21T02:17:10;98299.73;;;-1.04;58.49
59939;BME280;45801;51.810;19.444;2022-11-21T02:19:54;98298.70;;;-1.06;58.43
59939;BME280;45801;51.810;19.444;2022-11-21T02:25:28;98289.61;;;-1.11;59.16
59939;BME280;45801;51.810;19.444;2022-11-21T02:28:01;98291.96;;;-1.12;59.22
59939;BME280;45801;51.810;19.444;2022-11-21T02:30:33;98292.45;;;-1.12;59.24
59939;BME280;45801;51.810;19.444;2022-11-21T02:33:01;98294.02;;;-1.12;59.26
59939;BME280;45801;51.810;19.444;2022-11-21T02:35:27;98295.10;;;-1.13;59.30
59939;BME280;45801;51.810;19.444;2022-11-21T02:38:05;98294.32;;;-1.12;58.90
59939;BME280;45801;51.810;19.444;2022-11-21T02:40:36;98292.58;;;-1.13;58.61
59939;BME280;45801;51.810;19.444;2022-11-21T02:43:18;98294.96;;;-1.13;58.63
59939;BME280;45801;51.810;19.444;2022-11-21T02:45:47;98298.16;;;-1.11;58.82
59939;BME280;45801;51.810;19.444;2022-11-21T02:48:14;98298.63;;;-1.10;58.92
59939;BME280;45801;51.810;19.444;2022-11-21T02:50:42;98302.56;;;-1.10;58.74
59939;BME280;45801;51.810;19.444;2022-11-21T02:53:12;98307.25;;;-1.11;58.69
59939;BME280;45801;51.810;19.444;2022-11-21T02:55:40;98303.08;;;-1.14;58.84
59939;BME280;45801;51.810;19.444;2022-11-21T02:58:06;98294.88;;;-1.16;58.72
59939;BME280;45801;51.810;19.444;2022-11-21T03:00:35;98289.29;;;-1.17;58.59
59939;BME280;45801;51.810;19.444;2022-11-21T03:03:02;98277.28;;;-1.19;58.74
59939;BME280;45801;51.810;19.444;2022-11-21T03:05:28;98269.89;;;-1.19;58.71
59939;BME280;45801;51.810;19.444;2022-11-21T03:07:55;98271.55;;;-1.18;58.45
59939;BME280;45801;51.810;19.444;2022-11-21T03:10:21;98264.83;;;-1.16;58.46
59939;BME280;45801;51.810;19.444;2022-11-21T03:12:48;98259.09;;;-1.14;58.57
59939;BME280;45801;51.810;19.444;2022-11-21T03:15:15;98258.92;;;-1.12;58.40
59939;BME280;45801;51.810;19.444;2022-11-21T03:17:42;98266.70;;;-1.11;58.54
59939;BME280;45801;51.810;19.444;2022-11-21T03:20:09;98276.02;;;-1.11;58.63
59939;BME280;45801;51.810;19.444;2022-11-21T03:22:35;98281.53;;;-1.11;58.54
59939;BME280;45801;51.810;19.444;2022-11-21T03:25:02;98282.53;;;-1.13;58.68
59939;BME280;45801;51.810;19.444;2022-11-21T03:27:28;98285.14;;;-1.15;58.62
59939;BME280;45801;51.810;19.444;2022-11-21T03:29:55;98281.57;;;-1.17;58.64
59939;BME280;45801;51.810;19.444;2022-11-21T03:32:21;98272.65;;;-1.17;58.54
59939;BME280;45801;51.810;19.444;2022-11-21T03:34:48;98267.66;;;-1.17;58.72
59939;BME280;45801;51.810;19.444;2022-11-21T03:37:14;98266.95;;;-1.17;58.68
59939;BME280;45801;51.810;19.444;2022-11-21T03:39:42;98266.39;;;-1.18;58.63
59939;BME280;45801;51.810;19.444;2022-11-21T03:42:08;98266.00;;;-1.19;58.86
59939;BME280;45801;51.810;19.444;2022-11-21T03:44:38;98260.34;;;-1.21;59.31
59939;BME280;45801;51.810;19.444;2022-11-21T03:47:05;98255.99;;;-1.24;59.40
59939;BME280;45801;51.810;19.444;2022-11-21T03:49:31;98254.07;;;-1.24;59.37
59939;BME280;45801;51.810;19.444;2022-11-21T03:51:58;98242.28;;;-1.23;59.00
59939;BME280;45801;51.810;19.444;2022-11-21T03:54:24;98240.50;;;-1.22;59.10
59939;BME280;45801;51.810;19.444;2022-11-21T03:56:51;98237.20;;;-1.20;59.19
59939;BME280;45801;51.810;19.444;2022-11-21T03:59:17;98230.98;;;-1.18;59.25
59939;BME280;45801;51.810;19.444;2022-11-21T04:01:44;98225.71;;;-1.15;59.21
59939;BME280;45801;51.810;19.444;2022-11-21T04:04:10;98220.13;;;-1.14;58.67
59939;BME280;45801;51.810;19.444;2022-11-21T04:06:37;98220.27;;;-1.12;58.72
59939;BME280;45801;51.810;19.444;2022-11-21T04:09:03;98221.64;;;-1.12;59.12
59939;BME280;45801;51.810;19.444;2022-11-21T04:11:30;98224.20;;;-1.12;58.81
59939;BME280;45801;51.810;19.444;2022-11-21T04:13:56;98221.95;;;-1.12;58.83
59939;BME280;45801;51.810;19.444;2022-11-21T04:16:23;98220.02;;;-1.13;58.99
59939;BME280;45801;51.810;19.444;2022-11-21T04:18:49;98219.87;;;-1.15;58.78
59939;BME280;45801;51.810;19.444;2022-11-21T04:21:16;98215.96;;;-1.17;59.14
59939;BME280;45801;51.810;19.444;2022-11-21T04:23:42;98208.36;;;-1.17;59.19
59939;BME280;45801;51.810;19.444;2022-11-21T04:26:09;98210.60;;;-1.17;58.96
59939;BME280;45801;51.810;19.444;2022-11-21T04:28:35;98214.42;;;-1.14;59.02
59939;BME280;45801;51.810;19.444;2022-11-21T04:31:05;98208.42;;;-1.12;59.03
59939;BME280;45801;51.810;19.444;2022-11-21T04:33:33;98208.11;;;-1.09;58.86
59939;BME280;45801;51.810;19.444;2022-11-21T04:36:00;98211.66;;;-1.08;58.70
59939;BME280;45801;51.810;19.444;2022-11-21T04:38:26;98208.74;;;-1.07;58.73
59939;BME280;45801;51.810;19.444;2022-11-21T04:40:53;98213.92;;;-1.07;58.79
59939;BME280;45801;51.810;19.444;2022-11-21T04:43:19;98211.08;;;-1.06;58.81
59939;BME280;45801;51.810;19.444;2022-11-21T04:45:46;98201.48;;;-1.08;58.56
59939;BME280;45801;51.810;19.444;2022-11-21T04:48:12;98185.86;;;-1.10;58.49
59939;BME280;45801;51.810;19.444;2022-11-21T04:50:39;98180.74;;;-1.10;58.61
59939;BME280;45801;51.810;19.444;2022-11-21T04:53:05;98176.04;;;-1.10;58.42
59939;BME280;45801;51.810;19.444;2022-11-21T04:55:32;98167.61;;;-1.13;58.61
59939;BME280;45801;51.810;19.444;2022-11-21T04:57:58;98164.48;;;-1.16;58.64
59939;BME280;45801;51.810;19.444;2022-11-21T05:00:25;98166.19;;;-1.18;58.67
59939;BME280;45801;51.810;19.444;2022-11-21T05:02:52;98173.10;;;-1.23;59.04
59939;BME280;45801;51.810;19.444;2022-11-21T05:05:18;98173.77;;;-1.25;58.96
59939;BME280;45801;51.810;19.444;2022-11-21T05:07:45;98178.65;;;-1.27;59.12
59939;BME280;45801;51.810;19.444;2022-11-21T05:10:11;98177.30;;;-1.29;59.15
59939;BME280;45801;51.810;19.444;2022-11-21T05:12:38;98171.46;;;-1.31;59.32
59939;BME280;45801;51.810;19.444;2022-11-21T05:15:23;98165.39;;;-1.32;59.86
59939;BME280;45801;51.810;19.444;2022-11-21T05:17:49;98159.75;;;-1.32;59.95
59939;BME280;45801;51.810;19.444;2022-11-21T05:20:16;98159.70;;;-1.30;60.28
59939;BME280;45801;51.810;19.444;2022-11-21T05:22:44;98167.50;;;-1.24;60.55
59939;BME280;45801;51.810;19.444;2022-11-21T05:25:14;98163.61;;;-1.16;60.51
59939;BME280;45801;51.810;19.444;2022-11-21T05:27:42;98162.97;;;-1.08;60.54
59939;BME280;45801;51.810;19.444;2022-11-21T05:30:10;98157.29;;;-1.03;60.37
59939;BME280;45801;51.810;19.444;2022-11-21T05:32:36;98152.48;;;-0.98;60.25
59939;BME280;45801;51.810;19.444;2022-11-21T05:35:03;98145.96;;;-0.96;60.18
59939;BME280;45801;51.810;19.444;2022-11-21T05:37:30;98139.27;;;-0.96;60.38
59939;BME280;45801;51.810;19.444;2022-11-21T05:39:56;98138.38;;;-0.96;60.43
59939;BME280;45801;51.810;19.444;2022-11-21T05:42:23;98139.10;;;-0.95;60.56
59939;BME280;45801;51.810;19.444;2022-11-21T05:45:09;98142.70;;;-0.96;60.64
59939;BME280;45801;51.810;19.444;2022-11-21T05:47:36;98150.16;;;-0.92;60.50
59939;BME280;45801;51.810;19.444;2022-11-21T05:50:03;98151.41;;;-0.89;60.87
59939;BME280;45801;51.810;19.444;2022-11-21T05:52:30;98151.25;;;-0.84;60.38
59939;BME280;45801;51.810;19.444;2022-11-21T05:54:56;98157.07;;;-0.80;60.39
59939;BME280;45801;51.810;19.444;2022-11-21T05:57:24;98158.13;;;-0.77;60.63
59939;BME280;45801;51.810;19.444;2022-11-21T05:59:50;98156.20;;;-0.75;60.30
59939;BME280;45801;51.810;19.444;2022-11-21T06:02:18;98159.66;;;-0.74;60.50
59939;BME280;45801;51.810;19.444;2022-11-21T06:05:03;98157.55;;;-0.75;60.60
59939;BME280;45801;51.810;19.444;2022-11-21T06:07:29;98156.44;;;-0.74;60.69
59939;BME280;45801;51.810;19.444;2022-11-21T06:09:56;98153.05;;;-0.73;61.02
59939;BME280;45801;51.810;19.444;2022-11-21T06:12:22;98140.52;;;-0.70;61.04
59939;BME280;45801;51.810;19.444;2022-11-21T06:14:49;98137.38;;;-0.68;61.15
59939;BME280;45801;51.810;19.444;2022-11-21T06:17:15;98130.39;;;-0.67;61.09
59939;BME280;45801;51.810;19.444;2022-11-21T06:19:41;98126.27;;;-0.65;61.14
59939;BME280;45801;51.810;19.444;2022-11-21T06:22:08;98126.97;;;-0.62;61.04
59939;BME280;45801;51.810;19.444;2022-11-21T06:24:34;98132.66;;;-0.59;61.33
59939;BME280;45801;51.810;19.444;2022-11-21T06:27:01;98135.27;;;-0.56;62.00
59939;BME280;45801;51.810;19.444;2022-11-21T06:29:27;98138.08;;;-0.50;61.88
59939;BME280;45801;51.810;19.444;2022-11-21T06:31:54;98141.40;;;-0.42;61.28
59939;BME280;45801;51.810;19.444;2022-11-21T06:34:21;98144.56;;;-0.39;61.30
59939;BME280;45801;51.810;19.444;2022-11-21T06:36:47;98146.22;;;-0.32;61.23
59939;BME280;45801;51.810;19.444;2022-11-21T06:39:14;98141.54;;;-0.28;61.52
59939;BME280;45801;51.810;19.444;2022-11-21T06:41:42;98142.73;;;-0.23;61.45
59939;BME280;45801;51.810;19.444;2022-11-21T06:44:08;98141.02;;;-0.17;61.28
59939;BME280;45801;51.810;19.444;2022-11-21T06:46:35;98145.33;;;-0.15;61.19
59939;BME280;45801;51.810;19.444;2022-11-21T06:49:01;98143.64;;;-0.11;61.51
59939;BME280;45801;51.810;19.444;2022-11-21T06:51:28;98140.18;;;-0.07;61.67
59939;BME280;45801;51.810;19.444;2022-11-21T06:53:57;98142.54;;;-0.02;61.52
59939;BME280;45801;51.810;19.444;2022-11-21T06:56:26;98143.62;;;0.01;61.57
59939;BME280;45801;51.810;19.444;2022-11-21T06:58:53;98146.58;;;0.07;61.84
59939;BME280;45801;51.810;19.444;2022-11-21T07:01:20;98144.15;;;0.14;61.53
59939;BME280;45801;51.810;19.444;2022-11-21T07:03:46;98146.09;;;0.20;61.52
59939;BME280;45801;51.810;19.444;2022-11-21T07:06:13;98153.86;;;0.26;61.42
59939;BME280;45801;51.810;19.444;2022-11-21T07:08:39;98159.45;;;0.32;61.41
59939;BME280;45801;51.810;19.444;2022-11-21T07:11:08;98159.66;;;0.38;61.46
59939;BME280;45801;51.810;19.444;2022-11-21T07:13:35;98156.52;;;0.43;61.37
59939;BME280;45801;51.810;19.444;2022-11-21T07:16:09;98159.74;;;0.47;61.39
59939;BME280;45801;51.810;19.444;2022-11-21T07:18:39;98162.30;;;0.55;61.49
59939;BME280;45801;51.810;19.444;2022-11-21T07:21:08;98158.59;;;0.59;61.90
59939;BME280;45801;51.810;19.444;2022-11-21T07:23:35;98159.35;;;0.63;61.57
59939;BME280;45801;51.810;19.444;2022-11-21T07:26:04;98154.23;;;0.66;61.67
59939;BME280;45801;51.810;19.444;2022-11-21T07:28:31;98144.96;;;0.72;61.41
59939;BME280;45801;51.810;19.444;2022-11-21T07:30:59;98142.98;;;0.79;61.48
59939;BME280;45801;51.810;19.444;2022-11-21T07:33:26;98142.92;;;0.86;61.48
59939;BME280;45801;51.810;19.444;2022-11-21T07:35:56;98138.41;;;0.91;61.35
59939;BME280;45801;51.810;19.444;2022-11-21T07:38:25;98132.58;;;0.94;60.85
59939;BME280;45801;51.810;19.444;2022-11-21T07:40:55;98126.75;;;0.98;61.13
59939;BME280;45801;51.810;19.444;2022-11-21T07:43:21;98118.77;;;0.99;61.09
59939;BME280;45801;51.810;19.444;2022-11-21T07:45:48;98114.72;;;1.04;61.12
59939;BME280;45801;51.810;19.444;2022-11-21T07:48:14;98113.41;;;1.08;61.25
59939;BME280;45801;51.810;19.444;2022-11-21T07:50:41;98107.30;;;1.15;60.90
59939;BME280;45801;51.810;19.444;2022-11-21T07:53:09;98096.86;;;1.19;60.93
59939;BME280;45801;51.810;19.444;2022-11-21T07:55:36;98088.55;;;1.24;61.12
59939;BME280;45801;51.810;19.444;2022-11-21T07:58:04;98091.63;;;1.29;61.15
59939;BME280;45801;51.810;19.444;2022-11-21T08:00:34;98085.76;;;1.32;61.01
59939;BME280;45801;51.810;19.444;2022-11-21T08:03:02;98080.05;;;1.38;60.91
59939;BME280;45801;51.810;19.444;2022-11-21T08:05:29;98072.48;;;1.41;60.90
59939;BME280;45801;51.810;19.444;2022-11-21T08:07:55;98062.70;;;1.45;60.73
59939;BME280;45801;51.810;19.444;2022-11-21T08:10:22;98059.64;;;1.48;60.95
59939;BME280;45801;51.810;19.444;2022-11-21T08:12:48;98056.96;;;1.52;60.84
59939;BME280;45801;51.810;19.444;2022-11-21T08:15:15;98053.67;;;1.58;60.68
59939;BME280;45801;51.810;19.444;2022-11-21T08:17:41;98055.67;;;1.63;60.93
59939;BME280;45801;51.810;19.444;2022-11-21T08:20:09;98053.42;;;1.69;61.09
59939;BME280;45801;51.810;19.444;2022-11-21T08:22:37;98056.67;;;1.74;61.28
59939;BME280;45801;51.810;19.444;2022-11-21T08:25:05;98056.34;;;1.80;61.07
59939;BME280;45801;51.810;19.444;2022-11-21T08:27:31;98051.52;;;1.86;60.91
59939;BME280;45801;51.810;19.444;2022-11-21T08:29:58;98050.20;;;1.90;61.44
59939;BME280;45801;51.810;19.444;2022-11-21T08:32:24;98048.58;;;1.96;61.20
59939;BME280;45801;51.810;19.444;2022-11-21T08:34:51;98044.16;;;2.03;61.49
59939;BME280;45801;51.810;19.444;2022-11-21T08:37:17;98036.08;;;2.09;61.48
59939;BME280;45801;51.810;19.444;2022-11-21T08:39:44;98038.81;;;2.18;61.81
59939;BME280;45801;51.810;19.444;2022-11-21T08:42:10;98045.56;;;2.24;61.91
59939;BME280;45801;51.810;19.444;2022-11-21T08:44:36;98054.64;;;2.29;61.87
59939;BME280;45801;51.810;19.444;2022-11-21T08:47:04;98054.80;;;2.35;61.84
59939;BME280;45801;51.810;19.444;2022-11-21T08:49:31;98052.89;;;2.44;61.34
59939;BME280;45801;51.810;19.444;2022-11-21T08:51:58;98051.88;;;2.51;61.64
59939;BME280;45801;51.810;19.444;2022-11-21T08:54:24;98053.19;;;2.56;61.74
59939;BME280;45801;51.810;19.444;2022-11-21T08:56:52;98055.27;;;2.59;61.56
59939;BME280;45801;51.810;19.444;2022-11-21T08:59:18;98057.84;;;2.62;61.57
59939;BME280;45801;51.810;19.444;2022-11-21T09:01:46;98054.77;;;2.66;61.52
59939;BME280;45801;51.810;19.444;2022-11-21T09:04:13;98050.33;;;2.67;61.56
59939;BME280;45801;51.810;19.444;2022-11-21T09:06:39;98049.46;;;2.67;61.93
59939;BME280;45801;51.810;19.444;2022-11-21T09:09:06;98047.95;;;2.71;61.76
59939;BME280;45801;51.810;19.444;2022-11-21T09:11:34;98046.98;;;2.75;61.58
59939;BME280;45801;51.810;19.444;2022-11-21T09:14:00;98048.54;;;2.81;61.68
59939;BME280;45801;51.810;19.444;2022-11-21T09:16:46;98042.16;;;2.85;61.58
59939;BME280;45801;51.810;19.444;2022-11-21T09:19:30;98036.79;;;2.94;61.21
59939;BME280;45801;51.810;19.444;2022-11-21T09:21:57;98030.60;;;3.02;61.03
59939;BME280;45801;51.810;19.444;2022-11-21T09:24:23;98031.50;;;3.06;60.92
59939;BME280;45801;51.810;19.444;2022-11-21T09:26:50;98028.63;;;3.07;60.94
59939;BME280;45801;51.810;19.444;2022-11-21T09:29:16;98024.70;;;3.08;61.05
59939;BME280;45801;51.810;19.444;2022-11-21T09:31:43;98021.98;;;3.09;60.92
59939;BME280;45801;51.810;19.444;2022-11-21T09:34:10;98017.73;;;3.10;60.91
59939;BME280;45801;51.810;19.444;2022-11-21T09:36:37;98017.38;;;3.13;60.95
59939;BME280;45801;51.810;19.444;2022-11-21T09:39:04;98016.84;;;3.16;60.86
59939;BME280;45801;51.810;19.444;2022-11-21T09:41:36;98016.34;;;3.16;60.84
59939;BME280;45801;51.810;19.444;2022-11-21T09:44:37;98011.30;;;3.16;60.66
59939;BME280;45801;51.810;19.444;2022-11-21T09:47:44;98003.13;;;3.12;60.89
59939;BME280;45801;51.810;19.444;2022-11-21T09:52:39;97997.92;;;2.99;61.11
59939;BME280;45801;51.810;19.444;2022-11-21T09:55:36;97991.15;;;2.98;61.05
59939;BME280;45801;51.810;19.444;2022-11-21T09:58:30;97986.96;;;3.01;61.33
59939;BME280;45801;51.810;19.444;2022-11-21T10:00:57;97983.64;;;3.07;61.38
59939;BME280;45801;51.810;19.444;2022-11-21T10:03:36;97977.46;;;3.08;61.33
59939;BME280;45801;51.810;19.444;2022-11-21T10:08:54;97974.61;;;3.09;61.36
59939;BME280;45801;51.810;19.444;2022-11-21T10:11:28;97974.30;;;3.13;61.36
59939;BME280;45801;51.810;19.444;2022-11-21T10:31:47;97970.55;;;3.38;61.71
59939;BME280;45801;51.810;19.444;2022-11-21T10:34:18;97970.31;;;3.44;61.49
59939;BME280;45801;51.810;19.444;2022-11-21T10:36:55;97969.11;;;3.47;61.48
59939;BME280;45801;51.810;19.444;2022-11-21T10:39:44;97969.93;;;3.53;61.25
59939;BME280;45801;51.810;19.444;2022-11-21T10:44:43;97965.77;;;3.60;61.56
59939;BME280;45801;51.810;19.444;2022-11-21T10:47:33;97960.63;;;3.61;61.64
59939;BME280;45801;51.810;19.444;2022-11-21T10:50:26;97960.26;;;3.64;61.74
59939;BME280;45801;51.810;19.444;2022-11-21T10:53:04;97959.39;;;3.68;61.81
59939;BME280;45801;51.810;19.444;2022-11-21T10:56:01;97957.77;;;3.70;62.27
59939;BME280;45801;51.810;19.444;2022-11-21T10:58:40;97957.55;;;3.76;62.04
59939;BME280;45801;51.810;19.444;2022-11-21T11:06:39;97952.31;;;4.00;61.75
59939;BME280;45801;51.810;19.444;2022-11-21T11:09:22;97950.91;;;4.07;61.74
59939;BME280;45801;51.810;19.444;2022-11-21T11:11:49;97942.38;;;4.10;61.66
59939;BME280;45801;51.810;19.444;2022-11-21T11:14:29;97941.85;;;4.13;61.60
59939;BME280;45801;51.810;19.444;2022-11-21T11:16:57;97941.92;;;4.19;61.58
59939;BME280;45801;51.810;19.444;2022-11-21T11:19:27;97939.73;;;4.23;61.68
59939;BME280;45801;51.810;19.444;2022-11-21T11:21:55;97939.04;;;4.27;61.47
59939;BME280;45801;51.810;19.444;2022-11-21T11:24:24;97938.44;;;4.29;61.70
59939;BME280;45801;51.810;19.444;2022-11-21T11:26:58;97939.13;;;4.33;61.77
59939;BME280;45801;51.810;19.444;2022-11-21T11:29:27;97939.14;;;4.37;61.57
59939;BME280;45801;51.810;19.444;2022-11-21T11:32:04;97937.99;;;4.38;61.57
59939;BME280;45801;51.810;19.444;2022-11-21T11:34:40;97941.52;;;4.36;61.86
59939;BME280;45801;51.810;19.444;2022-11-21T11:37:20;97945.46;;;4.39;61.68
59939;BME280;45801;51.810;19.444;2022-11-21T11:42:44;97945.62;;;4.42;61.99
59939;BME280;45801;51.810;19.444;2022-11-21T11:45:47;97941.67;;;4.43;62.24
59939;BME280;45801;51.810;19.444;2022-11-21T11:48:36;97940.00;;;4.52;62.02
59939;BME280;45801;51.810;19.444;2022-11-21T11:51:16;97940.55;;;4.60;61.65
59939;BME280;45801;51.810;19.444;2022-11-21T11:53:49;97941.40;;;4.59;61.86
59939;BME280;45801;51.810;19.444;2022-11-21T11:56:27;97945.17;;;4.66;61.68
59939;BME280;45801;51.810;19.444;2022-11-21T12:01:44;97944.42;;;4.76;61.71
59939;BME280;45801;51.810;19.444;2022-11-21T12:04:18;97941.83;;;4.81;61.51
59939;BME280;45801;51.810;19.444;2022-11-21T12:07:06;97946.50;;;4.80;61.49
59939;BME280;45801;51.810;19.444;2022-11-21T12:09:51;97946.06;;;4.78;61.70
59939;BME280;45801;51.810;19.444;2022-11-21T12:12:27;97951.06;;;4.77;61.90
59939;BME280;45801;51.810;19.444;2022-11-21T12:15:11;97952.08;;;4.81;61.80
59939;BME280;45801;51.810;19.444;2022-11-21T12:34:48;97945.05;;;4.83;62.33
59939;BME280;45801;51.810;19.444;2022-11-21T12:40:34;97935.69;;;4.83;62.65
59939;BME280;45801;51.810;19.444;2022-11-21T12:43:30;97933.14;;;4.84;62.66
59939;BME280;45801;51.810;19.444;2022-11-21T12:46:09;97932.64;;;4.85;62.82
59939;BME280;45801;51.810;19.444;2022-11-21T12:48:52;97932.04;;;4.87;62.80
59939;BME280;45801;51.810;19.444;2022-11-21T12:52:08;97933.88;;;4.85;62.96
59939;BME280;45801;51.810;19.444;2022-11-21T12:55:10;97933.55;;;4.77;63.59
59939;BME280;45801;51.810;19.444;2022-11-21T13:00:59;97936.02;;;4.79;63.14
59939;BME280;45801;51.810;19.444;2022-11-21T13:05:49;97929.28;;;4.79;63.32
59939;BME280;45801;51.810;19.444;2022-11-21T13:08:35;97926.72;;;4.76;63.31
59939;BME280;45801;51.810;19.444;2022-11-21T13:11:09;97925.63;;;4.72;63.35
59939;BME280;45801;51.810;19.444;2022-11-21T13:16:40;97934.63;;;4.71;63.68
59939;BME280;45801;51.810;19.444;2022-11-21T13:19:43;97933.17;;;4.77;63.71
59939;BME280;45801;51.810;19.444;2022-11-21T13:27:35;97935.73;;;5.00;64.45
59939;BME280;45801;51.810;19.444;2022-11-21T13:32:45;97939.55;;;5.07;63.77
59939;BME280;45801;51.810;19.444;2022-11-21T13:38:06;97937.16;;;5.08;63.34
59939;BME280;45801;51.810;19.444;2022-11-21T13:40:39;97941.87;;;5.09;63.30
59939;BME280;45801;51.810;19.444;2022-11-21T13:43:32;97944.82;;;5.09;63.34
59939;BME280;45801;51.810;19.444;2022-11-21T13:45:58;97945.94;;;5.03;63.37
59939;BME280;45801;51.810;19.444;2022-11-21T13:51:39;97945.80;;;4.96;63.31
59939;BME280;45801;51.810;19.444;2022-11-21T13:54:44;97945.70;;;4.97;63.49
59939;BME280;45801;51.810;19.444;2022-11-21T14:00:13;97939.13;;;5.02;63.28
59939;BME280;45801;51.810;19.444;2022-11-21T14:02:58;97942.58;;;5.05;63.38
59939;BME280;45801;51.810;19.444;2022-11-21T14:05:33;97948.91;;;5.07;63.35
59939;BME280;45801;51.810;19.444;2022-11-21T14:08:21;97948.50;;;5.09;63.06
59939;BME280;45801;51.810;19.444;2022-11-21T14:10:50;97949.53;;;5.10;63.19
59939;BME280;45801;51.810;19.444;2022-11-21T14:13:37;97950.80;;;5.11;63.24
59939;BME280;45801;51.810;19.444;2022-11-21T14:18:44;97953.41;;;5.15;63.11
59939;BME280;45801;51.810;19.444;2022-11-21T14:21:23;97952.29;;;5.17;63.02
59939;BME280;45801;51.810;19.444;2022-11-21T14:23:56;97947.80;;;5.18;63.04
59939;BME280;45801;51.810;19.444;2022-11-21T14:26:24;97949.71;;;5.18;63.13
59939;BME280;45801;51.810;19.444;2022-11-21T14:28:50;97948.05;;;5.19;63.02
59939;BME280;45801;51.810;19.444;2022-11-21T14:31:17;97952.24;;;5.20;63.21
59939;BME280;45801;51.810;19.444;2022-11-21T14:33:45;97951.83;;;5.19;63.34
59939;BME280;45801;51.810;19.444;2022-11-21T14:36:24;97950.73;;;5.18;63.06
59939;BME280;45801;51.810;19.444;2022-11-21T14:38:54;97951.95;;;5.17;62.99
59939;BME280;45801;51.810;19.444;2022-11-21T14:48:52;97947.36;;;5.24;63.12
59939;BME280;45801;51.810;19.444;2022-11-21T14:51:21;97949.61;;;5.24;63.14